Time;durP1;ratioP1;P1;durP2;ratioP2;P2;SDS_P1;SDS_P2;PMS_P1;PMS_P2;Temp;Humidity;BMP_temperature;BMP_pressure;BME280_temperature;BME280_humidity;BME280_pressure;Samples;Min_cycle;Max_cycle;Signal;HPM_P1;HPM_P2
2023/05/15 00:00:50;;;;;;;3.10;2.10;;;7.70;99.90;;;;;;5038977;28;20174;-70
2023/05/15 00:03:16;;;;;;;12.20;3.10;;;7.70;99.90;;;;;;5036210;28;20189;-70
2023/05/15 00:05:42;;;;;;;3.60;2.47;;;7.70;99.90;;;;;;5032357;28;20500;-70
2023/05/15 00:08:07;;;;;;;5.17;2.77;;;7.70;99.90;;;;;;5033918;28;20421;-70
2023/05/15 00:10:33;;;;;;;4.50;2.73;;;7.70;99.90;;;;;;5049078;28;20642;-70
2023/05/15 00:12:58;;;;;;;4.53;3.20;;;7.70;99.90;;;;;;5050280;28;20253;-70
2023/05/15 00:15:24;;;;;;;6.43;2.37;;;7.70;99.90;;;;;;5046452;28;20339;-70
2023/05/15 00:17:49;;;;;;;3.43;2.30;;;7.70;99.90;;;;;;5022111;28;20194;-70
2023/05/15 00:20:15;;;;;;;3.00;1.97;;;7.70;99.90;;;;;;5034120;28;20186;-70
2023/05/15 00:22:41;;;;;;;3.17;1.67;;;7.60;99.90;;;;;;5030830;28;20265;-71
2023/05/15 00:25:07;;;;;;;4.30;2.53;;;7.60;99.90;;;;;;5031946;28;20613;-70
2023/05/15 00:27:32;;;;;;;3.70;1.97;;;7.60;99.90;;;;;;5030903;28;20178;-70
2023/05/15 00:29:58;;;;;;;5.17;2.70;;;7.60;99.90;;;;;;5042884;28;20280;-71
2023/05/15 00:32:23;;;;;;;6.63;2.70;;;7.50;99.90;;;;;;5050191;28;20212;-71
2023/05/15 00:34:49;;;;;;;6.60;3.00;;;7.50;99.90;;;;;;5050153;28;20570;-70
2023/05/15 00:37:15;;;;;;;5.70;3.47;;;7.40;99.90;;;;;;5050817;28;20180;-70
2023/05/15 00:39:40;;;;;;;8.10;3.00;;;7.40;99.90;;;;;;5045181;28;20236;-70
2023/05/15 00:42:07;;;;;;;9.10;3.77;;;7.40;99.90;;;;;;5041885;28;20670;-70
2023/05/15 00:44:34;;;;;;;6.50;3.27;;;7.40;99.90;;;;;;5050305;28;20178;-70
2023/05/15 00:47:02;;;;;;;7.67;3.07;;;7.40;99.90;;;;;;5050200;28;20472;-71
2023/05/15 00:49:28;;;;;;;2.73;1.70;;;7.40;99.90;;;;;;5042139;28;20832;-70
2023/05/15 00:51:56;;;;;;;7.07;2.60;;;7.40;99.90;;;;;;5027744;28;20925;-70
2023/05/15 00:54:21;;;;;;;7.10;3.77;;;7.40;99.90;;;;;;5035829;28;20425;-70
2023/05/15 00:56:49;;;;;;;11.00;3.40;;;7.50;99.90;;;;;;5040280;28;20500;-70
2023/05/15 00:59:17;;;;;;;3.73;2.17;;;7.50;99.90;;;;;;5036970;28;20182;-70
2023/05/15 01:01:44;;;;;;;4.77;2.93;;;7.40;99.90;;;;;;5045905;28;20420;-70
2023/05/15 01:04:10;;;;;;;5.27;2.93;;;7.40;99.90;;;;;;5053605;28;20943;-70
2023/05/15 01:06:36;;;;;;;6.83;3.03;;;7.50;99.90;;;;;;5053790;28;20775;-70
2023/05/15 01:09:03;;;;;;;3.50;1.70;;;7.40;99.90;;;;;;5053620;28;20447;-70
2023/05/15 01:11:35;;;;;;;3.30;1.80;;;7.50;99.90;;;;;;5053753;28;20439;-70
2023/05/15 01:14:05;;;;;;;4.13;2.20;;;7.50;99.90;;;;;;5053756;28;20884;-70
2023/05/15 01:16:32;;;;;;;5.37;3.17;;;7.50;99.90;;;;;;5038914;28;20456;-70
2023/05/15 01:18:57;;;;;;;5.40;2.27;;;7.50;99.90;;;;;;5029019;28;20845;-70
2023/05/15 01:21:36;;;;;;;4.40;2.77;;;7.50;99.90;;;;;;5037849;28;20425;-70
2023/05/15 01:24:20;;;;;;;4.93;2.40;;;7.60;99.90;;;;;;5035756;28;20181;-70
2023/05/15 01:26:58;;;;;;;6.67;2.80;;;7.60;99.90;;;;;;5030514;28;20885;-70
2023/05/15 01:29:42;;;;;;;4.60;2.33;;;7.60;99.90;;;;;;5034449;28;20452;-70
2023/05/15 01:32:56;;;;;;;3.77;2.20;;;7.70;99.90;;;;;;5033062;28;20505;-70
2023/05/15 01:35:30;;;;;;;2.50;1.90;;;7.70;99.90;;;;;;4999252;28;20445;-70
2023/05/15 01:38:33;;;;;;;5.00;2.77;;;7.70;99.90;;;;;;5051019;28;20444;-70
2023/05/15 01:41:07;;;;;;;4.90;2.50;;;7.70;99.90;;;;;;5053125;28;20509;-70
2023/05/15 01:43:36;;;;;;;5.20;2.73;;;7.70;99.90;;;;;;5053151;28;20865;-70
2023/05/15 01:46:02;;;;;;;5.07;3.10;;;7.70;99.90;;;;;;5053017;28;20416;-70
2023/05/15 01:48:30;;;;;;;11.43;2.73;;;7.80;99.90;;;;;;5053293;28;20494;-70
2023/05/15 01:51:00;;;;;;;3.90;2.60;;;7.80;99.90;;;;;;5052524;28;20555;-70
2023/05/15 01:53:27;;;;;;;4.80;2.50;;;7.80;99.90;;;;;;5052672;28;20792;-70
2023/05/15 01:55:53;;;;;;;3.37;2.27;;;7.80;99.90;;;;;;5044362;28;20712;-70
2023/05/15 01:58:19;;;;;;;8.17;2.67;;;7.80;99.90;;;;;;5053257;28;20412;-70
2023/05/15 02:00:46;;;;;;;3.90;2.20;;;7.90;99.90;;;;;;5043542;28;20439;-70
2023/05/15 02:03:12;;;;;;;8.33;2.50;;;8.00;99.90;;;;;;5052798;28;20779;-70
2023/05/15 02:05:38;;;;;;;11.40;2.50;;;8.10;99.90;;;;;;5051843;28;20423;-70
2023/05/15 02:08:04;;;;;;;4.80;2.97;;;8.10;99.90;;;;;;5052978;28;20420;-70
2023/05/15 02:10:32;;;;;;;4.30;2.23;;;8.20;99.90;;;;;;5052802;28;20983;-70
2023/05/15 02:12:59;;;;;;;4.43;2.60;;;8.20;99.90;;;;;;5052463;28;20422;-70
2023/05/15 02:15:26;;;;;;;7.87;2.93;;;8.20;99.90;;;;;;5049951;28;20448;-70
2023/05/15 02:17:52;;;;;;;4.20;2.70;;;8.30;99.90;;;;;;5026461;28;20911;-70
2023/05/15 02:20:17;;;;;;;4.43;2.30;;;8.20;99.90;;;;;;5032476;28;20426;-70
2023/05/15 02:22:43;;;;;;;5.07;2.80;;;8.30;99.90;;;;;;5040970;28;20183;-70
2023/05/15 02:25:08;;;;;;;3.93;2.50;;;8.30;99.90;;;;;;5048470;28;20212;-70
2023/05/15 02:27:46;;;;;;;7.80;2.87;;;8.30;99.90;;;;;;5052687;28;20267;-70
2023/05/15 02:30:43;;;;;;;5.10;2.60;;;8.40;99.90;;;;;;5030235;28;20642;-70
2023/05/15 02:33:44;;;;;;;3.10;2.20;;;8.40;99.90;;;;;;5047025;28;20414;-70
2023/05/15 02:36:14;;;;;;;7.30;2.80;;;8.40;99.90;;;;;;5048059;28;20417;-70
2023/05/15 02:38:52;;;;;;;5.27;2.80;;;8.40;99.90;;;;;;5052434;28;20416;-70
2023/05/15 02:41:18;;;;;;;6.23;2.90;;;8.50;99.90;;;;;;5051963;28;20503;-71
2023/05/15 02:43:47;;;;;;;5.27;2.63;;;8.50;99.90;;;;;;5051895;28;20430;-70
2023/05/15 02:46:14;;;;;;;3.50;2.57;;;8.60;99.90;;;;;;5052144;28;20767;-70
2023/05/15 02:48:41;;;;;;;5.77;3.20;;;8.60;99.90;;;;;;5052271;28;20453;-70
2023/05/15 02:51:07;;;;;;;5.23;2.50;;;8.60;99.90;;;;;;5033295;28;20465;-70
2023/05/15 02:53:41;;;;;;;5.20;2.53;;;8.60;99.90;;;;;;5044010;28;20888;-70
2023/05/15 02:56:07;;;;;;;5.33;2.77;;;8.60;99.90;;;;;;5042178;28;20903;-71
2023/05/15 02:58:33;;;;;;;3.30;2.67;;;8.60;99.90;;;;;;5052041;28;20431;-70
2023/05/15 03:00:59;;;;;;;3.17;2.33;;;8.60;99.90;;;;;;5041091;28;20424;-70
2023/05/15 03:03:25;;;;;;;4.50;2.43;;;8.70;99.90;;;;;;5051418;28;20424;-70
2023/05/15 03:05:51;;;;;;;7.23;4.00;;;8.70;99.90;;;;;;5062934;23;20190;-69
2023/05/15 03:08:18;;;;;;;6.03;2.70;;;8.70;99.90;;;;;;5043700;28;20212;-70
2023/05/15 03:10:43;;;;;;;7.93;3.10;;;8.70;99.90;;;;;;5038033;28;20490;-70
2023/05/15 03:13:09;;;;;;;4.83;2.90;;;8.70;99.90;;;;;;5051299;28;20428;-70
2023/05/15 03:15:35;;;;;;;3.67;2.20;;;8.70;99.90;;;;;;5047252;28;20197;-71
2023/05/15 03:18:01;;;;;;;4.87;3.20;;;8.70;99.90;;;;;;5031170;28;20186;-71
2023/05/15 03:20:27;;;;;;;7.50;3.27;;;8.70;99.90;;;;;;5029872;28;20186;-71
2023/05/15 03:22:53;;;;;;;4.57;3.20;;;8.70;99.90;;;;;;5046560;28;20457;-70
2023/05/15 03:25:18;;;;;;;4.97;3.27;;;8.70;99.90;;;;;;5041723;28;20189;-71
2023/05/15 03:27:44;;;;;;;3.37;2.20;;;8.80;99.90;;;;;;5045055;28;20188;-70
2023/05/15 03:30:10;;;;;;;3.33;2.07;;;8.80;99.90;;;;;;5028502;28;20641;-70
2023/05/15 03:32:35;;;;;;;4.47;2.63;;;8.80;99.90;;;;;;5037750;28;20182;-70
2023/05/15 03:35:01;;;;;;;5.40;2.63;;;8.80;99.90;;;;;;5037616;28;20178;-70
2023/05/15 03:37:27;;;;;;;2.80;2.00;;;8.80;99.90;;;;;;5051647;28;20526;-70
2023/05/15 03:39:52;;;;;;;4.77;2.77;;;8.80;99.90;;;;;;5044494;28;20722;-71
2023/05/15 03:42:22;;;;;;;4.00;2.53;;;8.80;99.90;;;;;;5044010;28;20448;-71
2023/05/15 03:44:48;;;;;;;5.33;3.03;;;8.80;99.90;;;;;;5051136;28;20198;-71
2023/05/15 03:47:14;;;;;;;4.70;2.63;;;8.80;99.90;;;;;;5037709;28;20488;-71
2023/05/15 03:49:41;;;;;;;6.70;3.33;;;8.80;99.90;;;;;;5050505;28;20479;-71
2023/05/15 03:52:06;;;;;;;4.23;2.73;;;8.90;99.90;;;;;;5037515;28;20413;-71
2023/05/15 03:54:32;;;;;;;6.53;3.10;;;8.90;99.90;;;;;;5047163;28;20538;-71
2023/05/15 03:56:58;;;;;;;6.13;2.93;;;8.80;99.90;;;;;;5044059;28;20204;-71
2023/05/15 03:59:24;;;;;;;4.00;2.60;;;8.90;99.90;;;;;;5046822;28;20175;-71
2023/05/15 04:01:49;;;;;;;4.97;2.20;;;8.90;99.90;;;;;;5043561;28;20259;-71
2023/05/15 04:04:15;;;;;;;4.67;2.80;;;8.90;99.90;;;;;;5050014;28;20237;-71
2023/05/15 04:06:41;;;;;;;5.53;2.63;;;9.10;99.90;;;;;;5050772;28;20786;-71
2023/05/15 04:09:06;;;;;;;4.20;2.57;;;9.00;99.90;;;;;;5050431;28;20196;-71
2023/05/15 04:11:33;;;;;;;6.43;2.90;;;9.00;99.90;;;;;;5050136;28;20665;-71
2023/05/15 04:13:59;;;;;;;6.30;2.37;;;9.00;99.90;;;;;;5050575;28;20174;-71
2023/05/15 04:16:25;;;;;;;4.73;2.57;;;9.10;99.90;;;;;;5039074;28;20483;-71
2023/05/15 04:18:50;;;;;;;4.80;2.83;;;9.10;99.90;;;;;;5030764;28;20425;-71
2023/05/15 04:21:16;;;;;;;8.33;3.07;;;9.20;99.90;;;;;;5044178;28;20192;-71
2023/05/15 04:23:42;;;;;;;4.17;2.43;;;9.20;99.90;;;;;;5039501;28;20261;-71
2023/05/15 04:26:08;;;;;;;5.30;3.03;;;9.30;99.90;;;;;;5030862;28;20217;-71
2023/05/15 04:28:33;;;;;;;5.80;2.87;;;9.30;99.90;;;;;;5050902;28;20516;-71
2023/05/15 04:30:59;;;;;;;5.60;1.83;;;9.30;99.90;;;;;;5050730;28;20674;-71
2023/05/15 04:33:25;;;;;;;4.23;2.10;;;9.30;99.90;;;;;;5041605;28;20224;-71
2023/05/15 04:35:52;;;;;;;4.57;2.47;;;9.40;99.90;;;;;;5054126;28;20924;-71
2023/05/15 04:38:17;;;;;;;6.83;2.83;;;9.40;99.90;;;;;;5054854;28;20208;-71
2023/05/15 04:40:43;;;;;;;4.23;2.57;;;9.40;99.90;;;;;;5053620;28;20443;-71
2023/05/15 04:43:09;;;;;;;4.10;2.33;;;9.50;99.90;;;;;;5041776;28;20209;-71
2023/05/15 04:45:35;;;;;;;5.67;2.90;;;9.50;99.90;;;;;;5054241;28;20820;-71
2023/05/15 04:48:00;;;;;;;4.97;2.90;;;9.60;99.90;;;;;;5047191;28;20189;-71
2023/05/15 04:50:26;;;;;;;4.17;2.10;;;9.60;99.90;;;;;;5034283;28;20639;-71
2023/05/15 04:52:51;;;;;;;4.73;2.53;;;9.70;99.90;;;;;;5047172;28;20184;-71
2023/05/15 04:55:17;;;;;;;3.67;2.43;;;9.60;99.90;;;;;;5038843;28;20182;-71
2023/05/15 04:57:45;;;;;;;7.00;2.67;;;9.70;99.90;;;;;;5054584;28;20185;-71
2023/05/15 05:00:11;;;;;;;4.10;2.83;;;9.70;99.90;;;;;;5044129;28;20179;-71
2023/05/15 05:02:38;;;;;;;5.23;2.33;;;9.80;99.90;;;;;;5053603;28;20760;-71
2023/05/15 05:05:06;;;;;;;3.10;1.90;;;9.80;99.90;;;;;;5053587;28;20892;-71
2023/05/15 05:07:32;;;;;;;3.57;2.40;;;9.90;99.90;;;;;;5054298;28;20868;-71
2023/05/15 05:09:57;;;;;;;8.10;2.83;;;10.00;99.90;;;;;;5053880;28;20467;-71
2023/05/15 05:12:23;;;;;;;5.17;2.80;;;10.00;99.90;;;;;;5053491;28;20932;-71
2023/05/15 05:14:49;;;;;;;5.97;2.47;;;10.00;99.90;;;;;;5053942;28;20541;-71
2023/05/15 05:17:14;;;;;;;5.43;2.90;;;10.00;99.90;;;;;;5035925;28;20553;-71
2023/05/15 05:19:40;;;;;;;5.60;2.57;;;10.10;99.90;;;;;;5033760;28;20186;-71
2023/05/15 05:22:06;;;;;;;3.57;2.93;;;10.10;99.90;;;;;;5046499;28;20269;-71
2023/05/15 05:24:34;;;;;;;6.00;2.80;;;10.20;99.90;;;;;;5044519;28;20268;-71
2023/05/15 05:26:59;;;;;;;3.90;2.20;;;10.40;99.90;;;;;;5053534;28;20537;-71
2023/05/15 05:29:25;;;;;;;3.30;2.07;;;10.30;99.90;;;;;;5049912;28;20507;-71
2023/05/15 05:31:51;;;;;;;5.77;2.87;;;10.30;99.90;;;;;;5053264;28;20212;-71
2023/05/15 05:34:17;;;;;;;4.63;2.50;;;10.30;99.90;;;;;;5052924;28;20336;-71
2023/05/15 05:36:42;;;;;;;4.40;2.90;;;10.40;99.90;;;;;;5053626;28;20677;-71
2023/05/15 05:39:08;;;;;;;4.13;2.27;;;10.40;99.90;;;;;;5053377;28;20421;-71
2023/05/15 05:41:34;;;;;;;6.13;2.60;;;10.40;99.90;;;;;;5045586;28;20567;-72
2023/05/15 05:44:00;;;;;;;5.70;3.20;;;10.50;99.90;;;;;;5034237;28;20266;-71
2023/05/15 05:46:26;;;;;;;3.40;2.00;;;10.50;99.90;;;;;;5053641;28;20196;-72
2023/05/15 05:48:51;;;;;;;4.17;2.47;;;10.50;99.90;;;;;;5052813;28;20657;-71
2023/05/15 05:51:17;;;;;;;3.50;2.37;;;10.50;99.90;;;;;;5052785;28;20456;-71
2023/05/15 05:53:42;;;;;;;4.00;2.00;;;10.50;99.90;;;;;;5039613;28;20733;-71
2023/05/15 05:56:09;;;;;;;4.73;3.20;;;10.50;99.90;;;;;;5036137;28;20316;-71
2023/05/15 05:58:34;;;;;;;4.43;2.40;;;10.50;99.90;;;;;;5046423;28;20473;-71
2023/05/15 06:01:00;;;;;;;3.13;2.17;;;10.50;99.90;;;;;;5042204;28;20428;-71
2023/05/15 06:03:26;;;;;;;4.10;2.80;;;10.50;99.90;;;;;;5038251;28;20187;-71
2023/05/15 06:05:52;;;;;;;9.13;3.33;;;10.60;99.90;;;;;;5052109;28;20216;-71
2023/05/15 06:08:18;;;;;;;4.07;2.50;;;10.60;99.90;;;;;;5052218;28;20509;-71
2023/05/15 06:10:44;;;;;;;4.27;2.93;;;10.60;99.90;;;;;;5052517;28;20460;-70
2023/05/15 06:13:11;;;;;;;5.57;2.80;;;10.60;99.90;;;;;;5051694;28;20409;-71
2023/05/15 06:15:37;;;;;;;9.87;2.67;;;10.70;99.90;;;;;;5032800;28;20942;-71
2023/05/15 06:18:02;;;;;;;4.10;2.90;;;10.80;99.90;;;;;;5032610;28;20413;-71
2023/05/15 06:20:28;;;;;;;8.50;3.27;;;10.90;99.90;;;;;;5039668;28;20178;-71
2023/05/15 06:22:53;;;;;;;7.80;3.10;;;10.90;99.90;;;;;;5048208;28;20635;-71
2023/05/15 06:25:19;;;;;;;4.37;2.90;;;11.00;99.90;;;;;;5050378;28;20232;-71
2023/05/15 06:27:46;;;;;;;12.60;2.97;;;11.00;99.90;;;;;;5052484;28;20683;-71
2023/05/15 06:30:12;;;;;;;3.60;2.23;;;11.10;99.90;;;;;;5032691;28;20499;-71
2023/05/15 06:32:38;;;;;;;7.27;3.27;;;11.10;99.90;;;;;;5045225;28;20990;-71
2023/05/15 06:35:04;;;;;;;4.20;3.23;;;11.20;99.90;;;;;;5032367;28;20441;-71
2023/05/15 06:37:30;;;;;;;4.57;2.83;;;11.20;99.90;;;;;;5033150;28;20813;-71
2023/05/15 06:39:56;;;;;;;6.17;3.37;;;11.30;99.90;;;;;;5052204;28;20452;-71
2023/05/15 06:42:22;;;;;;;5.53;2.70;;;11.30;99.90;;;;;;5051336;28;20220;-71
2023/05/15 06:44:48;;;;;;;7.37;3.23;;;11.40;99.90;;;;;;5052698;28;20194;-71
2023/05/15 06:47:14;;;;;;;5.63;3.23;;;11.60;99.90;;;;;;5031078;28;20421;-71
2023/05/15 06:49:40;;;;;;;3.60;2.60;;;11.80;99.90;;;;;;5021051;28;20515;-71
2023/05/15 06:52:05;;;;;;;4.30;2.67;;;11.90;99.90;;;;;;5023120;28;20578;-71
2023/05/15 06:54:31;;;;;;;7.20;3.30;;;12.10;99.90;;;;;;5027381;28;20647;-71
2023/05/15 06:56:57;;;;;;;3.10;2.53;;;12.30;99.90;;;;;;5023288;28;20180;-71
2023/05/15 06:59:22;;;;;;;4.73;2.80;;;12.50;99.90;;;;;;5029524;28;20194;-71
2023/05/15 07:01:48;;;;;;;5.17;2.90;;;12.70;99.90;;;;;;5022124;28;20230;-71
2023/05/15 07:04:14;;;;;;;5.13;3.20;;;12.90;99.90;;;;;;5022912;28;20731;-71
2023/05/15 07:06:39;;;;;;;5.00;2.40;;;13.10;99.90;;;;;;5023828;28;20240;-71
2023/05/15 07:09:05;;;;;;;5.37;3.23;;;13.30;99.90;;;;;;5027617;28;20296;-71
2023/05/15 07:11:32;;;;;;;3.33;2.40;;;13.40;99.90;;;;;;5031519;28;20285;-71
2023/05/15 07:13:58;;;;;;;3.57;2.30;;;13.60;99.90;;;;;;5051356;28;20185;-71
2023/05/15 07:16:23;;;;;;;5.33;2.67;;;13.90;99.90;;;;;;5040653;28;20409;-71
2023/05/15 07:18:49;;;;;;;4.77;2.63;;;14.10;99.90;;;;;;5031825;28;20174;-71
2023/05/15 07:21:15;;;;;;;4.90;2.83;;;14.30;99.90;;;;;;5031412;28;20209;-71
2023/05/15 07:23:40;;;;;;;4.00;2.40;;;14.60;99.90;;;;;;5047255;28;20569;-72
2023/05/15 07:26:06;;;;;;;7.20;2.57;;;14.90;99.90;;;;;;5043828;28;20200;-72
2023/05/15 07:28:32;;;;;;;3.77;2.30;;;15.10;99.90;;;;;;5029818;28;20260;-71
2023/05/15 07:30:57;;;;;;;7.10;3.00;;;15.30;99.90;;;;;;5023838;28;20272;-71
2023/05/15 07:33:23;;;;;;;4.10;2.40;;;15.80;99.90;;;;;;5034329;28;20174;-71
2023/05/15 07:35:51;;;;;;;7.20;1.97;;;16.60;99.90;;;;;;5038237;28;20174;-72
2023/05/15 07:38:17;;;;;;;5.10;1.80;;;17.50;99.90;;;;;;5032121;28;20178;-72
2023/05/15 07:40:42;;;;;;;3.10;1.90;;;18.60;99.90;;;;;;5037629;28;20417;-72
2023/05/15 07:43:08;;;;;;;2.87;1.90;;;19.30;98.70;;;;;;5031785;28;20512;-72
2023/05/15 07:45:34;;;;;;;4.63;1.93;;;19.70;97.30;;;;;;5032351;28;20248;-72
2023/05/15 07:48:16;;;;;;;3.40;1.80;;;19.70;96.60;;;;;;5027240;28;20186;-71
2023/05/15 07:50:42;;;;;;;3.57;1.77;;;19.70;95.40;;;;;;5028676;28;20204;-72
2023/05/15 07:53:07;;;;;;;3.80;1.80;;;19.50;95.50;;;;;;5042437;28;20423;-72
2023/05/15 07:55:33;;;;;;;3.60;2.27;;;18.80;96.60;;;;;;5050881;28;20178;-73
2023/05/15 07:57:59;;;;;;;2.87;1.70;;;17.70;98.10;;;;;;5051484;28;20174;-72
2023/05/15 08:00:25;;;;;;;3.97;1.73;;;17.00;98.60;;;;;;5040703;28;20182;-73
2023/05/15 08:02:50;;;;;;;3.00;1.70;;;16.60;99.70;;;;;;5041899;28;20423;-73
2023/05/15 08:05:16;;;;;;;2.40;1.40;;;16.80;99.90;;;;;;5025684;28;20237;-73
2023/05/15 08:07:42;;;;;;;2.07;1.20;;;16.60;99.90;;;;;;5036953;28;20190;-72
2023/05/15 08:10:08;;;;;;;3.37;1.80;;;16.40;99.60;;;;;;5045875;28;20205;-72
2023/05/15 08:12:33;;;;;;;3.47;1.90;;;16.90;99.30;;;;;;5050781;28;20648;-72
2023/05/15 08:14:59;;;;;;;3.10;1.83;;;17.30;98.40;;;;;;5036048;28;20449;-72
2023/05/15 08:17:25;;;;;;;3.20;2.00;;;17.40;97.90;;;;;;5006565;28;20192;-73
2023/05/15 08:19:51;;;;;;;2.83;1.50;;;18.20;97.20;;;;;;5014711;28;20197;-73
2023/05/15 08:22:17;;;;;;;2.47;1.40;;;18.80;96.70;;;;;;5024493;28;20312;-73
2023/05/15 08:24:43;;;;;;;2.67;1.57;;;19.70;94.20;;;;;;5012893;28;20511;-71
2023/05/15 08:27:09;;;;;;;2.60;1.53;;;20.30;92.60;;;;;;5017622;28;20250;-73
2023/05/15 08:29:35;;;;;;;2.70;1.27;;;20.10;92.40;;;;;;5022223;28;20576;-72
2023/05/15 08:32:02;;;;;;;2.37;1.07;;;20.00;92.50;;;;;;5030403;28;20181;-73
2023/05/15 08:34:28;;;;;;;2.97;1.57;;;19.60;91.60;;;;;;5029904;28;20413;-72
2023/05/15 08:36:54;;;;;;;3.33;1.60;;;20.20;91.70;;;;;;5013430;28;20417;-73
2023/05/15 08:39:20;;;;;;;4.30;1.47;;;20.40;90.90;;;;;;5010022;28;20787;-71
2023/05/15 08:41:56;;;;;;;2.10;1.10;;;20.60;91.10;;;;;;5007590;28;20434;-72
2023/05/15 08:44:22;;;;;;;3.33;1.33;;;20.30;90.70;;;;;;5010044;28;20194;-72
2023/05/15 08:46:48;;;;;;;3.00;1.33;;;19.30;92.20;;;;;;5014276;28;20448;-72
2023/05/15 08:49:21;;;;;;;3.27;1.80;;;19.20;93.10;;;;;;5026162;28;20429;-72
2023/05/15 08:51:47;;;;;;;2.07;1.30;;;19.40;92.40;;;;;;5030170;28;20181;-72
2023/05/15 08:54:15;;;;;;;3.07;1.63;;;18.90;94.10;;;;;;5024902;28;20503;-72
2023/05/15 08:56:41;;;;;;;3.40;1.87;;;18.60;93.80;;;;;;5030616;28;20182;-72
2023/05/15 08:59:07;;;;;;;2.10;1.20;;;18.70;93.90;;;;;;5029096;28;20424;-72
2023/05/15 09:01:33;;;;;;;2.80;1.33;;;19.20;93.30;;;;;;5014476;28;20421;-72
2023/05/15 09:03:58;;;;;;;2.73;1.40;;;19.70;92.00;;;;;;5028238;28;20606;-72
2023/05/15 09:06:25;;;;;;;5.33;1.90;;;20.10;92.20;;;;;;5030739;28;20276;-73
2023/05/15 09:08:54;;;;;;;7.93;2.10;;;20.70;90.30;;;;;;5030481;28;20189;-72
2023/05/15 09:11:22;;;;;;;3.97;2.27;;;20.90;88.20;;;;;;5030206;28;20468;-72
2023/05/15 09:13:48;;;;;;;3.93;2.10;;;21.40;87.60;;;;;;5030060;28;20429;-72
2023/05/15 09:16:14;;;;;;;2.40;1.70;;;21.40;88.80;;;;;;5017950;28;20417;-72
2023/05/15 09:18:40;;;;;;;2.90;1.50;;;21.80;86.90;;;;;;5011192;28;20619;-72
2023/05/15 09:21:25;;;;;;;2.53;1.50;;;21.70;87.50;;;;;;5017081;28;20636;-72
2023/05/15 09:24:13;;;;;;;3.37;1.67;;;20.90;89.60;;;;;;5030091;28;20447;-71
2023/05/15 09:26:40;;;;;;;3.50;1.73;;;20.60;90.20;;;;;;5029580;28;20413;-72
2023/05/15 09:29:05;;;;;;;2.10;1.20;;;20.10;90.70;;;;;;5032404;28;20755;-72
2023/05/15 09:31:31;;;;;;;2.73;1.63;;;20.10;91.30;;;;;;5031218;28;21010;-72
2023/05/15 09:34:03;;;;;;;10.53;2.27;;;19.80;91.30;;;;;;5033056;28;20177;-72
2023/05/15 09:36:29;;;;;;;2.47;1.10;;;19.60;90.50;;;;;;5033835;28;20178;-70
2023/05/15 09:39:00;;;;;;;8.57;1.90;;;18.90;93.20;;;;;;5033439;28;20425;-70
2023/05/15 09:41:26;;;;;;;3.40;1.90;;;18.00;98.70;;;;;;5033428;28;20434;-68
2023/05/15 09:43:55;;;;;;;4.67;2.50;;;16.90;99.90;;;;;;5033724;28;20937;-68
2023/05/15 09:46:22;;;;;;;2.97;1.87;;;15.80;99.90;;;;;;5027949;28;20429;-67
2023/05/15 09:48:48;;;;;;;4.80;2.17;;;15.10;99.90;;;;;;5033078;28;20432;-67
2023/05/15 09:51:19;;;;;;;6.33;2.53;;;14.80;99.90;;;;;;5027205;28;20465;-67
2023/05/15 09:53:50;;;;;;;5.57;2.37;;;14.60;99.90;;;;;;5026904;28;20413;-67
2023/05/15 09:56:17;;;;;;;4.10;2.70;;;14.40;99.90;;;;;;5032872;28;20425;-68
2023/05/15 09:58:53;;;;;;;6.53;2.83;;;14.30;99.90;;;;;;5032401;28;20421;-68
2023/05/15 10:01:20;;;;;;;4.10;2.77;;;14.30;99.90;;;;;;5030130;28;20421;-67
2023/05/15 10:04:00;;;;;;;6.10;3.37;;;14.40;99.90;;;;;;5032632;28;20483;-68
2023/05/15 10:06:25;;;;;;;4.90;2.87;;;14.60;99.90;;;;;;5032744;28;20447;-68
2023/05/15 10:08:54;;;;;;;3.50;2.07;;;14.80;99.90;;;;;;5032934;28;20417;-67
2023/05/15 10:11:22;;;;;;;5.40;2.43;;;15.10;99.90;;;;;;5012738;28;20694;-67
2023/05/15 10:13:48;;;;;;;4.60;2.10;;;15.30;99.90;;;;;;5012388;28;20483;-69
2023/05/15 10:16:14;;;;;;;2.90;2.00;;;15.70;99.90;;;;;;5013213;28;20422;-69
2023/05/15 10:18:40;;;;;;;4.00;2.20;;;15.90;99.90;;;;;;5018306;28;20676;-69
2023/05/15 10:21:08;;;;;;;3.80;1.80;;;16.10;99.90;;;;;;5027849;28;21064;-69
2023/05/15 10:23:35;;;;;;;4.97;2.27;;;16.40;99.90;;;;;;5019275;28;20178;-69
2023/05/15 10:26:12;;;;;;;3.13;1.63;;;16.60;99.90;;;;;;5032841;28;20417;-69
2023/05/15 10:28:38;;;;;;;4.20;2.33;;;16.80;99.90;;;;;;5032326;28;20913;-69
2023/05/15 10:31:05;;;;;;;4.57;2.07;;;17.20;99.90;;;;;;5032555;28;21044;-69
2023/05/15 10:33:33;;;;;;;3.33;1.87;;;17.40;99.90;;;;;;5032190;28;20447;-68
2023/05/15 10:36:00;;;;;;;3.27;2.00;;;17.50;99.90;;;;;;5032222;28;20426;-68
2023/05/15 10:38:28;;;;;;;2.77;1.50;;;17.50;98.70;;;;;;5032870;28;20440;-68
2023/05/15 10:40:56;;;;;;;2.87;1.80;;;17.50;97.80;;;;;;5032419;28;20436;-68
2023/05/15 10:43:22;;;;;;;3.73;2.10;;;17.30;98.40;;;;;;5032408;28;20508;-68
2023/05/15 10:45:50;;;;;;;2.53;1.60;;;17.20;99.70;;;;;;5027371;28;20804;-68
2023/05/15 10:48:16;;;;;;;12.63;2.13;;;17.50;99.50;;;;;;5027751;28;20913;-68
2023/05/15 10:50:42;;;;;;;3.93;1.70;;;17.70;97.50;;;;;;5020381;28;20461;-68
2023/05/15 10:53:09;;;;;;;3.47;1.87;;;17.60;98.60;;;;;;5017855;28;20428;-68
2023/05/15 10:55:35;;;;;;;2.87;1.47;;;17.60;98.00;;;;;;5025712;28;20191;-68
2023/05/15 10:58:07;;;;;;;2.70;1.57;;;17.30;97.00;;;;;;5014611;28;21079;-70
2023/05/15 11:00:32;;;;;;;2.80;1.83;;;16.90;97.50;;;;;;5017548;28;20436;-70
2023/05/15 11:02:59;;;;;;;1.77;1.03;;;17.00;98.30;;;;;;5018323;28;20418;-69
2023/05/15 11:05:25;;;;;;;2.53;1.30;;;17.10;96.00;;;;;;5030210;28;20197;-70
2023/05/15 11:08:24;;;;;;;2.37;1.73;;;17.40;94.20;;;;;;5032201;28;20967;-69
2023/05/15 11:10:50;;;;;;;3.40;1.63;;;17.80;94.10;;;;;;5022940;28;20469;-70
2023/05/15 11:13:16;;;;;;;3.43;1.70;;;18.30;93.30;;;;;;5021172;28;20549;-69
2023/05/15 11:15:46;;;;;;;2.40;1.47;;;18.20;94.80;;;;;;5014435;28;20508;-70
2023/05/15 11:18:12;;;;;;;3.90;1.40;;;17.90;94.90;;;;;;5005828;28;20184;-70
2023/05/15 11:20:40;;;;;;;3.93;1.17;;;17.70;94.60;;;;;;5012065;28;20891;-70
2023/05/15 11:23:06;;;;;;;2.00;1.03;;;17.60;93.00;;;;;;5022323;28;20483;-70
2023/05/15 11:25:34;;;;;;;3.83;1.70;;;17.60;93.90;;;;;;5010688;28;20446;-70
2023/05/15 11:28:02;;;;;;;2.50;1.17;;;17.40;94.40;;;;;;5009028;28;20651;-70
2023/05/15 11:30:38;;;;;;;1.97;1.07;;;17.30;93.50;;;;;;5009593;28;20465;-70
2023/05/15 11:33:10;;;;;;;1.93;1.13;;;17.50;94.50;;;;;;5008300;28;20518;-68
2023/05/15 11:35:47;;;;;;;2.53;1.90;;;18.20;92.70;;;;;;5017560;28;20426;-70
2023/05/15 11:38:25;;;;;;;3.73;1.23;;;18.40;93.90;;;;;;5018935;28;20805;-70
2023/05/15 11:40:54;;;;;;;1.73;0.90;;;18.70;91.80;;;;;;5031135;28;20425;-70
2023/05/15 11:43:26;;;;;;;2.07;1.20;;;18.80;91.30;;;;;;5030874;28;20511;-70
2023/05/15 11:46:13;;;;;;;1.70;0.90;;;18.70;89.30;;;;;;5022572;28;20644;-69
2023/05/15 11:48:44;;;;;;;2.90;1.23;;;18.40;89.50;;;;;;5011675;28;20789;-69
2023/05/15 11:51:20;;;;;;;5.00;1.30;;;18.10;91.00;;;;;;5017580;28;20476;-69
2023/05/15 11:53:46;;;;;;;3.67;1.53;;;17.70;91.40;;;;;;5030949;28;20889;-69
2023/05/15 11:56:20;;;;;;;2.60;1.40;;;17.50;92.40;;;;;;5030918;28;20512;-70
2023/05/15 11:58:50;;;;;;;2.27;1.40;;;17.40;93.70;;;;;;5030973;28;20425;-67
2023/05/15 12:01:16;;;;;;;4.07;1.50;;;17.30;96.50;;;;;;5020472;28;20439;-69
2023/05/15 12:03:41;;;;;;;22.57;2.07;;;17.30;98.20;;;;;;5028646;28;20425;-69
2023/05/15 12:06:09;;;;;;;3.77;1.60;;;17.30;97.90;;;;;;5005387;28;20563;-69
2023/05/15 12:08:38;;;;;;;3.50;1.60;;;17.40;98.00;;;;;;5016582;28;20540;-69
2023/05/15 12:11:04;;;;;;;3.53;1.37;;;17.70;98.30;;;;;;5014880;28;20954;-69
2023/05/15 12:13:31;;;;;;;6.50;1.73;;;18.30;97.50;;;;;;5013485;28;21371;-69
2023/05/15 12:15:57;;;;;;;3.93;2.00;;;18.30;97.70;;;;;;5012238;28;20969;-69
2023/05/15 12:18:23;;;;;;;3.10;1.70;;;18.60;98.90;;;;;;5010953;28;20423;-70
2023/05/15 12:20:51;;;;;;;2.47;1.73;;;18.50;97.90;;;;;;5019677;28;20781;-70
2023/05/15 12:23:21;;;;;;;4.87;1.87;;;18.30;97.30;;;;;;5026045;28;20190;-70
2023/05/15 12:25:50;;;;;;;2.17;1.37;;;18.30;98.10;;;;;;5030519;28;20425;-70
2023/05/15 12:28:16;;;;;;;2.63;1.20;;;18.60;97.40;;;;;;5030576;28;21309;-70
2023/05/15 12:30:42;;;;;;;2.97;1.60;;;18.40;97.10;;;;;;5030727;28;20479;-70
2023/05/15 12:33:09;;;;;;;2.80;1.33;;;18.10;97.20;;;;;;5029952;28;20197;-70
2023/05/15 12:35:40;;;;;;;2.30;1.33;;;18.10;96.90;;;;;;5030367;28;20462;-70
2023/05/15 12:38:06;;;;;;;3.10;1.53;;;18.30;96.20;;;;;;5030749;28;20927;-70
2023/05/15 12:40:36;;;;;;;3.23;2.00;;;18.40;96.10;;;;;;5021028;28;20835;-71
2023/05/15 12:43:09;;;;;;;2.90;1.30;;;18.30;95.90;;;;;;5010779;28;20421;-70
2023/05/15 12:45:38;;;;;;;3.87;2.17;;;18.20;95.80;;;;;;5004070;28;20429;-70
2023/05/15 12:48:04;;;;;;;2.80;1.80;;;18.00;96.80;;;;;;5002923;28;20525;-70
2023/05/15 12:50:34;;;;;;;2.77;1.37;;;18.00;96.00;;;;;;5005138;28;20461;-70
2023/05/15 12:53:02;;;;;;;2.90;1.60;;;17.80;96.50;;;;;;5015034;28;20432;-70